Time;durP1;ratioP1;P1;durP2;ratioP2;P2;SDS_P1;SDS_P2;PMS_P1;PMS_P2;Temp;Humidity;BMP_temperature;BMP_pressure;BME280_temperature;BME280_humidity;BME280_pressure;Samples;Min_cycle;Max_cycle;Signal;HPM_P1;HPM_P2
2024/01/04 00:00:23;;;;;;;13.73;5.00;;;;;;;7.53;100.00;99444.13;5016075;28;20022;-59
2024/01/04 00:02:49;;;;;;;11.73;3.92;;;;;;;7.52;100.00;99442.44;5013968;28;20025;-58
2024/01/04 00:05:15;;;;;;;13.88;4.18;;;;;;;7.53;100.00;99448.59;5010574;28;20022;-59
2024/01/04 00:07:40;;;;;;;11.13;4.30;;;;;;;7.54;100.00;99456.38;5015669;28;20379;-59
2024/01/04 00:10:06;;;;;;;7.50;3.90;;;;;;;7.56;100.00;99456.22;5014702;28;20021;-59
2024/01/04 00:12:31;;;;;;;9.73;4.30;;;;;;;7.56;100.00;99472.94;5014354;28;20057;-60
2024/01/04 00:14:59;;;;;;;10.95;4.25;;;;;;;7.58;100.00;99476.28;5016524;28;20107;-59
2024/01/04 00:17:24;;;;;;;11.35;3.88;;;;;;;7.57;100.00;99485.16;5016537;28;20103;-59
2024/01/04 00:19:50;;;;;;;11.98;4.00;;;;;;;7.57;100.00;99493.09;5010357;28;20068;-58
2024/01/04 00:22:15;;;;;;;9.70;4.00;;;;;;;7.58;100.00;99502.69;5018293;28;20029;-59
2024/01/04 00:24:40;;;;;;;9.98;4.40;;;;;;;7.59;100.00;99504.38;5009799;28;20028;-60
2024/01/04 00:27:06;;;;;;;10.75;4.13;;;;;;;7.58;100.00;99515.06;5016603;28;20025;-59
2024/01/04 00:29:31;;;;;;;8.60;4.20;;;;;;;7.58;100.00;99507.97;5014289;28;20037;-59
2024/01/04 00:31:56;;;;;;;9.57;3.80;;;;;;;7.58;100.00;99518.56;5014377;28;20040;-60
2024/01/04 00:34:23;;;;;;;10.07;3.88;;;;;;;7.57;100.00;99529.25;5014538;28;20425;-60
2024/01/04 00:36:48;;;;;;;9.80;4.13;;;;;;;7.57;100.00;99538.00;5014709;28;20407;-60
2024/01/04 00:39:13;;;;;;;9.95;3.97;;;;;;;7.58;100.00;99546.78;5011604;28;20272;-60
2024/01/04 00:41:38;;;;;;;8.07;3.13;;;;;;;7.58;100.00;99546.78;5012751;28;20100;-59
2024/01/04 00:44:04;;;;;;;10.77;3.38;;;;;;;7.58;100.00;99555.53;5013092;28;20036;-60
2024/01/04 00:46:29;;;;;;;12.27;3.60;;;;;;;7.57;100.00;99555.66;5017284;28;20098;-60
2024/01/04 00:48:54;;;;;;;11.55;3.80;;;;;;;7.57;100.00;99559.13;5013069;28;20045;-60
2024/01/04 00:51:20;;;;;;;9.98;3.22;;;;;;;7.57;100.00;99572.34;5020517;28;20033;-59
2024/01/04 00:53:45;;;;;;;7.90;3.40;;;;;;;7.55;100.00;99582.22;5021116;28;20052;-59
2024/01/04 00:56:10;;;;;;;6.95;2.83;;;;;;;7.56;100.00;99583.91;5017933;28;20033;-60
2024/01/04 00:58:36;;;;;;;5.70;3.00;;;;;;;7.55;100.00;99584.88;5017603;28;20034;-59
2024/01/04 01:01:03;;;;;;;9.15;3.15;;;;;;;7.55;100.00;99584.88;5018747;28;20124;-60
2024/01/04 01:03:29;;;;;;;15.48;3.17;;;;;;;7.55;100.00;99597.25;5018622;28;20406;-60
2024/01/04 01:05:54;;;;;;;7.85;3.00;;;;;;;7.56;100.00;99609.47;5017119;28;20034;-58
2024/01/04 01:08:19;;;;;;;11.77;2.90;;;;;;;7.57;100.00;99606.69;5019619;28;20105;-60
2024/01/04 01:10:45;;;;;;;6.32;3.03;;;;;;;7.57;100.00;99608.50;5023217;28;20033;-60
2024/01/04 01:13:10;;;;;;;9.50;3.53;;;;;;;7.57;100.00;99622.56;5020325;28;20061;-60
2024/01/04 01:15:35;;;;;;;9.27;3.28;;;;;;;7.57;100.00;99619.09;5019974;28;20487;-59
2024/01/04 01:18:01;;;;;;;10.75;3.70;;;;;;;7.58;100.00;99612.84;5013582;28;20025;-59
2024/01/04 01:20:26;;;;;;;11.75;3.67;;;;;;;7.58;100.00;99626.06;5022187;28;20172;-59
2024/01/04 01:22:52;;;;;;;14.65;3.80;;;;;;;7.58;100.00;99626.06;5017956;28;20038;-59
2024/01/04 01:25:17;;;;;;;8.95;3.35;;;;;;;7.59;100.00;99630.34;5018819;28;20570;-59
2024/01/04 01:27:42;;;;;;;12.70;3.55;;;;;;;7.60;100.00;99632.03;5023690;28;20040;-59
2024/01/04 01:30:08;;;;;;;11.43;3.28;;;;;;;7.59;100.00;99639.16;5022458;28;20017;-60
2024/01/04 01:32:33;;;;;;;8.77;3.17;;;;;;;7.61;100.00;99639.03;5020603;28;20480;-59
2024/01/04 01:34:59;;;;;;;9.48;3.22;;;;;;;7.60;100.00;99651.38;5020877;28;20080;-59
2024/01/04 01:37:24;;;;;;;8.73;2.92;;;;;;;7.61;100.00;99660.16;5018298;28;20068;-60
2024/01/04 01:39:49;;;;;;;6.22;2.63;;;;;;;7.62;100.00;99658.34;5020173;28;20376;-59
2024/01/04 01:42:16;;;;;;;9.10;2.92;;;;;;;7.62;100.00;99667.09;5021785;28;20386;-57
2024/01/04 01:44:41;;;;;;;9.23;3.20;;;;;;;7.62;100.00;99674.19;5021035;28;20430;-59
2024/01/04 01:47:07;;;;;;;10.25;3.10;;;;;;;7.62;100.00;99684.78;5023068;28;20065;-59
2024/01/04 01:49:32;;;;;;;15.02;3.35;;;;;;;7.60;100.00;99687.53;5018625;28;20053;-60
2024/01/04 01:51:58;;;;;;;10.90;2.90;;;;;;;7.60;100.00;99691.00;5020537;28;20036;-60
2024/01/04 01:54:24;;;;;;;11.43;3.08;;;;;;;7.59;100.00;99697.28;5020365;28;20601;-60
2024/01/04 01:56:50;;;;;;;9.38;3.15;;;;;;;7.60;100.00;99703.41;5021052;28;20030;-60
2024/01/04 01:59:16;;;;;;;10.00;2.88;;;;;;;7.58;100.00;99698.22;5016592;28;20103;-60
2024/01/04 02:01:42;;;;;;;12.65;3.22;;;;;;;7.58;100.00;99708.81;5021336;28;20459;-60
2024/01/04 02:04:07;;;;;;;10.00;2.95;;;;;;;7.58;100.00;99707.97;5018602;28;20029;-60
2024/01/04 02:06:32;;;;;;;13.35;2.85;;;;;;;7.58;100.00;99719.38;5018964;28;20025;-59
2024/01/04 02:08:57;;;;;;;11.65;2.80;;;;;;;7.58;100.00;99710.63;5018229;28;20022;-60
2024/01/04 02:11:23;;;;;;;9.82;2.90;;;;;;;7.57;100.00;99717.69;5020689;28;20380;-60
2024/01/04 02:13:48;;;;;;;11.45;2.80;;;;;;;7.58;100.00;99713.25;5017102;28;20029;-60
2024/01/04 02:16:14;;;;;;;10.65;3.20;;;;;;;7.57;100.00;99728.25;5020218;28;20038;-60
2024/01/04 02:18:39;;;;;;;12.65;3.17;;;;;;;7.56;100.00;99734.53;5017250;28;20026;-60
2024/01/04 02:21:05;;;;;;;11.05;3.53;;;;;;;7.56;100.00;99736.31;5020769;28;20037;-59
2024/01/04 02:23:31;;;;;;;9.68;3.60;;;;;;;7.55;100.00;99742.56;5015813;28;20030;-60
2024/01/04 02:25:56;;;;;;;13.07;3.88;;;;;;;7.55;100.00;99747.84;5020243;28;20033;-59
2024/01/04 02:28:21;;;;;;;10.52;3.78;;;;;;;7.55;100.00;99748.69;5017021;28;20072;-60
2024/01/04 02:30:47;;;;;;;13.25;3.35;;;;;;;7.56;100.00;99752.16;5020219;28;20116;-58
2024/01/04 02:33:12;;;;;;;14.75;4.15;;;;;;;7.56;100.00;99752.16;5020596;28;20098;-59
2024/01/04 02:35:37;;;;;;;12.88;3.90;;;;;;;7.55;100.00;99756.59;5022558;28;20026;-59
2024/01/04 02:38:02;;;;;;;8.85;3.70;;;;;;;7.59;100.00;99765.13;5012575;28;20181;-60
2024/01/04 02:40:29;;;;;;;12.93;3.95;;;;;;;7.54;100.00;99762.03;5017277;28;20037;-58
2024/01/04 02:42:55;;;;;;;10.13;3.80;;;;;;;7.56;100.00;99774.16;5015937;28;20033;-59
2024/01/04 02:45:20;;;;;;;12.18;4.22;;;;;;;7.56;100.00;99778.56;5020706;28;20025;-60
2024/01/04 02:47:45;;;;;;;10.15;3.70;;;;;;;7.56;100.00;99768.88;5020164;28;20029;-59
2024/01/04 02:50:11;;;;;;;11.52;3.65;;;;;;;7.54;100.00;99773.44;5018440;28;20495;-59
2024/01/04 02:52:37;;;;;;;7.43;3.17;;;;;;;7.52;100.00;99778.00;5020868;28;20040;-60
2024/01/04 02:55:03;;;;;;;11.60;3.45;;;;;;;7.49;100.00;99769.47;5018770;28;20038;-60
2024/01/04 02:57:28;;;;;;;4.35;2.08;;;;;;;7.50;100.00;99781.75;5021647;28;20022;-60
2024/01/04 02:59:53;;;;;;;4.93;2.13;;;;;;;7.46;100.00;99780.28;5021499;28;20064;-60
2024/01/04 03:02:18;;;;;;;7.82;1.95;;;;;;;7.43;100.00;99780.53;5018815;28;20532;-60
2024/01/04 03:04:44;;;;;;;5.20;2.25;;;;;;;7.39;100.00;99788.72;5021724;28;20112;-59
2024/01/04 03:07:10;;;;;;;5.28;2.03;;;;;;;7.38;100.00;99794.97;5017943;28;20022;-59
2024/01/04 03:09:35;;;;;;;4.45;2.10;;;;;;;7.37;100.00;99805.66;5021414;28;20034;-59
2024/01/04 03:12:01;;;;;;;7.82;1.98;;;;;;;7.36;100.00;99798.69;5015763;28;20038;-59
2024/01/04 03:14:26;;;;;;;4.35;1.98;;;;;;;7.34;100.00;99798.81;5021028;28;20018;-58
2024/01/04 03:16:51;;;;;;;5.05;2.10;;;;;;;7.33;100.00;99810.34;5021931;28;20032;-59
2024/01/04 03:19:17;;;;;;;7.20;2.72;;;;;;;7.33;100.00;99815.63;5014793;28;20025;-59
2024/01/04 03:21:42;;;;;;;7.72;2.90;;;;;;;7.32;100.00;99815.75;5020211;28;20033;-59
2024/01/04 03:24:08;;;;;;;6.82;2.75;;;;;;;7.31;100.00;99821.97;5016202;28;20041;-58
2024/01/04 03:26:33;;;;;;;6.68;2.97;;;;;;;7.30;100.00;99830.88;5020165;28;20375;-59
2024/01/04 03:28:58;;;;;;;5.80;3.03;;;;;;;7.29;100.00;99831.84;5019392;28;20034;-60
2024/01/04 03:31:24;;;;;;;9.27;2.90;;;;;;;7.28;100.00;99830.16;5021097;28;20117;-59
2024/01/04 03:33:49;;;;;;;10.75;3.72;;;;;;;7.25;100.00;99820.69;5016602;28;20113;-59
2024/01/04 03:36:15;;;;;;;7.50;2.95;;;;;;;7.25;100.00;99833.06;5017467;28;20033;-58
2024/01/04 03:38:40;;;;;;;6.65;3.33;;;;;;;7.23;100.00;99833.16;5018907;28;20695;-60
2024/01/04 03:41:07;;;;;;;8.38;3.85;;;;;;;7.22;100.00;99840.22;5015823;28;20048;-59
2024/01/04 03:43:33;;;;;;;8.00;4.00;;;;;;;7.21;100.00;99846.50;5017996;28;20088;-59
2024/01/04 03:45:58;;;;;;;9.30;4.10;;;;;;;7.23;100.00;99843.75;5017635;28;20038;-59
2024/01/04 03:48:23;;;;;;;7.63;3.72;;;;;;;7.21;100.00;99843.00;5015485;28;20033;-59
2024/01/04 03:50:48;;;;;;;9.85;4.35;;;;;;;7.22;100.00;99850.81;5018664;28;20140;-59
2024/01/04 03:53:14;;;;;;;8.07;4.50;;;;;;;7.23;100.00;99849.03;5018180;28;20121;-59
2024/01/04 03:55:39;;;;;;;9.35;4.35;;;;;;;7.22;100.00;99850.81;5018846;28;20104;-59
2024/01/04 03:58:04;;;;;;;11.10;4.70;;;;;;;7.25;100.00;99856.81;5017610;28;20033;-59
2024/01/04 04:00:30;;;;;;;11.82;4.72;;;;;;;7.25;100.00;99859.47;5022418;28;20473;-59
2024/01/04 04:02:55;;;;;;;8.73;5.05;;;;;;;7.27;100.00;99861.00;5019813;28;20117;-60
2024/01/04 04:05:20;;;;;;;9.02;4.63;;;;;;;7.27;100.00;99862.81;5018779;28;20022;-59
2024/01/04 04:07:46;;;;;;;9.80;4.90;;;;;;;7.28;100.00;99865.34;5020168;28;20045;-59
2024/01/04 04:10:11;;;;;;;12.80;5.72;;;;;;;7.28;100.00;99869.75;5019180;28;20439;-59
2024/01/04 04:12:36;;;;;;;13.40;5.75;;;;;;;7.30;100.00;99867.88;5015061;28;20038;-60
2024/01/04 04:15:02;;;;;;;12.25;5.50;;;;;;;7.31;100.00;99880.97;5016538;28;20118;-61
2024/01/04 04:17:28;;;;;;;12.10;5.93;;;;;;;7.32;100.00;99881.78;5018996;28;20076;-60
2024/01/04 04:19:53;;;;;;;10.52;5.47;;;;;;;7.32;100.00;99884.44;5015752;28;20485;-60
2024/01/04 04:22:18;;;;;;;10.20;5.80;;;;;;;7.31;100.00;99885.38;5019123;28;20033;-60
2024/01/04 04:24:44;;;;;;;14.20;6.15;;;;;;;7.33;100.00;99886.94;5017541;28;20034;-60
2024/01/04 04:27:09;;;;;;;15.80;6.30;;;;;;;7.33;100.00;99894.03;5023795;28;20068;-60
2024/01/04 04:29:38;;;;;;;11.10;6.40;;;;;;;7.32;100.00;99889.72;5008615;28;20470;-60
2024/01/04 04:32:04;;;;;;;12.15;6.05;;;;;;;7.32;100.00;99897.63;5019627;28;20026;-61
2024/01/04 04:34:30;;;;;;;14.02;5.75;;;;;;;7.31;100.00;99899.44;5019150;28;20088;-61
2024/01/04 04:36:55;;;;;;;14.73;7.05;;;;;;;7.32;100.00;99898.47;5021362;28;20491;-61
2024/01/04 04:39:21;;;;;;;14.07;6.80;;;;;;;7.33;100.00;99904.59;5022326;28;20018;-60
2024/01/04 04:41:46;;;;;;;10.93;5.88;;;;;;;7.33;100.00;99900.16;5018069;28;20030;-60
2024/01/04 04:44:11;;;;;;;9.77;5.82;;;;;;;7.32;100.00;99909.03;5022237;28;20433;-60
2024/01/04 04:46:36;;;;;;;9.48;5.85;;;;;;;7.32;100.00;99910.84;5022556;28;20042;-60
2024/01/04 04:49:02;;;;;;;15.13;5.75;;;;;;;7.30;100.00;99912.78;5021161;28;20543;-60
2024/01/04 04:51:27;;;;;;;9.38;4.82;;;;;;;7.30;100.00;99915.41;5022746;28;20566;-60
2024/01/04 04:53:52;;;;;;;13.45;5.60;;;;;;;7.30;100.00;99921.53;5021229;28;20078;-59
2024/01/04 04:56:18;;;;;;;11.80;4.72;;;;;;;7.30;100.00;99915.41;5020772;28;20052;-60
2024/01/04 04:58:43;;;;;;;10.23;5.45;;;;;;;7.29;100.00;99917.19;5021801;28;20116;-59
2024/01/04 05:01:08;;;;;;;11.70;5.50;;;;;;;7.28;100.00;99918.16;5022667;28;20029;-60
2024/01/04 05:03:35;;;;;;;11.38;5.90;;;;;;;7.28;100.00;99933.16;5020029;28;20032;-59
2024/01/04 05:06:00;;;;;;;10.20;5.93;;;;;;;7.27;100.00;99932.31;5018408;28;20041;-59
2024/01/04 05:08:25;;;;;;;10.73;6.35;;;;;;;7.28;100.00;99934.00;5018615;28;20025;-59
2024/01/04 05:10:51;;;;;;;11.40;6.97;;;;;;;7.28;100.00;99938.44;5020982;28;20030;-58
2024/01/04 05:13:16;;;;;;;15.27;6.80;;;;;;;7.27;100.00;99931.50;5018930;28;20022;-59
2024/01/04 05:15:42;;;;;;;16.38;7.35;;;;;;;7.26;100.00;99935.94;5024356;28;20033;-59
2024/01/04 05:18:09;;;;;;;11.48;7.03;;;;;;;7.25;100.00;99934.25;5021993;28;20029;-59
2024/01/04 05:20:35;;;;;;;14.35;6.85;;;;;;;7.21;100.00;99944.22;5023048;28;20071;-59
2024/01/04 05:23:00;;;;;;;12.55;7.03;;;;;;;7.21;100.00;99944.22;5016230;28;20442;-59
2024/01/04 05:25:25;;;;;;;11.90;6.80;;;;;;;7.18;100.00;99947.09;5019711;28;20037;-59
2024/01/04 05:27:51;;;;;;;11.00;6.43;;;;;;;7.16;100.00;99953.44;5018443;28;20022;-59
2024/01/04 05:30:17;;;;;;;9.13;6.07;;;;;;;7.13;100.00;99961.63;5024600;28;20390;-58
2024/01/04 05:32:42;;;;;;;9.82;5.60;;;;;;;7.10;100.00;99952.13;5020247;28;20033;-58
2024/01/04 05:35:08;;;;;;;9.88;5.10;;;;;;;7.05;100.00;99954.25;5018105;28;20022;-59
2024/01/04 05:37:33;;;;;;;8.38;4.40;;;;;;;7.04;100.00;99968.41;5019874;28;20650;-59
2024/01/04 05:39:58;;;;;;;8.23;4.35;;;;;;;7.01;100.00;99964.22;5021764;28;20022;-59
2024/01/04 05:42:23;;;;;;;5.75;3.33;;;;;;;7.01;100.00;99966.00;5013705;28;20065;-58
2024/01/04 05:44:49;;;;;;;4.82;3.47;;;;;;;6.98;100.00;99969.72;5022203;28;20030;-59
2024/01/04 05:47:14;;;;;;;10.27;3.00;;;;;;;6.98;100.00;99976.81;5019072;28;20467;-59
2024/01/04 05:49:39;;;;;;;7.20;2.95;;;;;;;6.97;100.00;99983.03;5020914;28;20056;-59
2024/01/04 05:52:06;;;;;;;6.90;2.92;;;;;;;6.96;100.00;99987.50;5017230;28;20065;-60
2024/01/04 05:54:31;;;;;;;5.93;2.55;;;;;;;6.93;100.00;99979.81;5020818;28;20432;-59
2024/01/04 05:56:57;;;;;;;5.65;2.85;;;;;;;6.93;100.00;99994.78;5020368;28;20057;-59
2024/01/04 05:59:25;;;;;;;5.00;2.80;;;;;;;6.92;100.00;99998.38;5022283;28;20120;-59
2024/01/04 06:01:51;;;;;;;5.75;2.53;;;;;;;6.92;100.00;100009.78;5019033;28;20100;-59
2024/01/04 06:04:16;;;;;;;5.85;2.80;;;;;;;6.92;100.00;100003.66;5020469;28;20053;-57
2024/01/04 06:06:42;;;;;;;3.85;2.80;;;;;;;6.92;100.00;100009.78;5018763;28;20116;-58
2024/01/04 06:09:07;;;;;;;4.93;2.85;;;;;;;6.93;100.00;100013.25;5021719;28;20044;-59
2024/01/04 06:11:32;;;;;;;10.45;3.47;;;;;;;6.94;100.00;100018.41;5019562;28;20386;-58
2024/01/04 06:13:58;;;;;;;4.95;2.90;;;;;;;6.94;100.00;100028.97;5019761;28;20025;-61
2024/01/04 06:16:23;;;;;;;5.82;3.65;;;;;;;6.95;100.00;100030.69;5019579;28;20554;-61
2024/01/04 06:18:48;;;;;;;5.53;3.60;;;;;;;6.95;100.00;100029.84;5019684;28;20087;-61
2024/01/04 06:21:13;;;;;;;5.05;3.63;;;;;;;6.96;100.00;100034.16;5016735;28;20044;-61
2024/01/04 06:23:39;;;;;;;6.35;3.40;;;;;;;6.96;100.00;100040.28;5020775;28;20080;-61
2024/01/04 06:26:04;;;;;;;8.55;3.80;;;;;;;6.97;100.00;100031.41;5020036;28;20029;-61
2024/01/04 06:28:29;;;;;;;5.95;3.25;;;;;;;6.98;100.00;100033.09;5022381;28;20387;-61
2024/01/04 06:30:55;;;;;;;8.40;3.75;;;;;;;6.99;100.00;100036.56;5015785;28;20537;-60
2024/01/04 06:33:20;;;;;;;9.13;3.72;;;;;;;7.01;100.00;100037.28;5024676;28;20056;-60
2024/01/04 06:35:45;;;;;;;6.97;3.85;;;;;;;7.02;100.00;100041.63;5015012;28;20471;-60
2024/01/04 06:38:10;;;;;;;7.72;4.30;;;;;;;7.02;100.00;100042.47;5019894;28;20383;-60
2024/01/04 06:40:37;;;;;;;6.22;4.00;;;;;;;7.04;100.00;100045.84;5015935;28;20026;-60
2024/01/04 06:43:03;;;;;;;5.10;3.72;;;;;;;7.04;100.00;100045.84;5021254;28;20032;-60
2024/01/04 06:45:29;;;;;;;8.10;4.20;;;;;;;7.07;100.00;100049.22;5015957;28;20581;-60
2024/01/04 06:47:55;;;;;;;7.22;4.15;;;;;;;7.08;100.00;100053.50;5020658;28;20034;-60
2024/01/04 06:50:21;;;;;;;9.20;4.05;;;;;;;7.07;100.00;100063.25;5020323;28;20053;-60
2024/01/04 06:52:46;;;;;;;8.40;3.90;;;;;;;7.08;100.00;100066.72;5020155;28;20038;-60
2024/01/04 06:55:12;;;;;;;7.30;3.80;;;;;;;7.08;100.00;100072.88;5020291;28;20030;-60
2024/01/04 06:57:38;;;;;;;5.90;3.63;;;;;;;7.08;100.00;100079.91;5019732;28;20029;-60
2024/01/04 07:00:05;;;;;;;7.93;4.10;;;;;;;7.09;100.00;100087.72;5010899;28;20040;-59
2024/01/04 07:02:33;;;;;;;6.70;3.63;;;;;;;7.08;100.00;100087.84;5019243;28;20453;-60
2024/01/04 07:04:58;;;;;;;6.50;3.50;;;;;;;7.09;100.00;100093.00;5011015;28;20026;-60
2024/01/04 07:07:24;;;;;;;7.03;3.60;;;;;;;7.09;100.00;100093.00;5018359;28;20080;-59
2024/01/04 07:09:50;;;;;;;7.03;3.60;;;;;;;7.10;100.00;100094.69;5020583;28;20481;-58
2024/01/04 07:12:15;;;;;;;5.90;3.40;;;;;;;7.11;100.00;100103.47;5014472;28;20034;-58
2024/01/04 07:14:40;;;;;;;10.63;4.18;;;;;;;7.09;100.00;100108.84;5011598;28;20035;-58
2024/01/04 07:17:07;;;;;;;12.20;3.88;;;;;;;7.09;100.00;100102.75;5019733;28;20043;-57
2024/01/04 07:19:32;;;;;;;7.47;3.67;;;;;;;7.09;100.00;100100.09;5011622;28;20042;-58
2024/01/04 07:21:58;;;;;;;9.75;3.92;;;;;;;7.10;100.00;100113.19;5016832;28;21629;-59
2024/01/04 07:24:23;;;;;;;9.90;4.13;;;;;;;7.10;100.00;100104.44;5012246;28;20475;-59
2024/01/04 07:26:48;;;;;;;11.38;4.70;;;;;;;7.09;100.00;100108.03;5012201;28;20033;-59
2024/01/04 07:29:13;;;;;;;11.60;4.70;;;;;;;7.08;100.00;100112.47;5019578;28;20025;-58
2024/01/04 07:31:39;;;;;;;12.55;4.65;;;;;;;7.07;100.00;100115.22;5013123;28;20129;-58
2024/01/04 07:34:04;;;;;;;12.60;5.53;;;;;;;7.06;100.00;100119.66;5015060;28;20025;-59
2024/01/04 07:36:30;;;;;;;13.35;5.78;;;;;;;7.04;100.00;100113.63;5013079;28;20058;-58
2024/01/04 07:38:55;;;;;;;13.43;6.45;;;;;;;7.01;100.00;100119.13;5017412;28;20475;-58
2024/01/04 07:41:20;;;;;;;8.80;5.72;;;;;;;6.99;100.00;100123.69;5017434;28;20032;-59
2024/01/04 07:43:47;;;;;;;12.90;6.65;;;;;;;6.97;100.00;100123.81;5016322;28;20037;-59
2024/01/04 07:46:12;;;;;;;11.50;6.57;;;;;;;6.94;100.00;100137.22;5014457;28;20026;-58
2024/01/04 07:48:37;;;;;;;13.88;6.80;;;;;;;6.91;100.00;100136.59;5020023;28;20084;-59
2024/01/04 07:51:03;;;;;;;12.88;7.20;;;;;;;6.88;100.00;100142.97;5018190;28;20104;-58
2024/01/04 07:53:28;;;;;;;13.48;7.10;;;;;;;6.84;100.00;100149.41;5018513;28;20022;-57
2024/01/04 07:55:53;;;;;;;16.23;7.05;;;;;;;6.81;100.00;100153.13;5017440;28;20036;-58
2024/01/04 07:58:18;;;;;;;14.07;7.07;;;;;;;6.79;100.00;100157.66;5016042;28;20029;-58
2024/01/04 08:00:44;;;;;;;12.77;7.22;;;;;;;6.77;100.00;100167.47;5019316;28;20079;-59
2024/01/04 08:03:09;;;;;;;10.93;6.68;;;;;;;6.77;100.00;100172.75;5017414;28;20033;-58
2024/01/04 08:05:34;;;;;;;14.27;5.93;;;;;;;6.76;100.00;100180.78;5020505;28;20071;-59
2024/01/04 08:08:00;;;;;;;13.90;6.32;;;;;;;6.75;100.00;100179.94;5020205;28;20026;-58
2024/01/04 08:10:25;;;;;;;11.50;5.50;;;;;;;6.74;100.00;100175.63;5020577;28;20029;-58
2024/01/04 08:12:51;;;;;;;11.55;5.47;;;;;;;6.74;100.00;100169.50;5015620;28;20083;-59
2024/01/04 08:15:16;;;;;;;11.23;5.53;;;;;;;6.74;100.00;100183.53;5014780;28;20030;-57
2024/01/04 08:17:42;;;;;;;8.15;5.20;;;;;;;6.74;100.00;100180.88;5010599;28;20026;-57
2024/01/04 08:20:07;;;;;;;11.80;4.90;;;;;;;6.75;100.00;100184.41;5016654;28;20040;-59
2024/01/04 08:22:33;;;;;;;10.20;4.38;;;;;;;6.75;100.00;100182.59;5019349;28;20032;-57
2024/01/04 08:24:58;;;;;;;11.25;4.00;;;;;;;6.76;100.00;100189.56;5020540;28;20544;-58
2024/01/04 08:27:23;;;;;;;8.88;3.70;;;;;;;6.78;100.00;100190.28;5018654;28;20084;-57
2024/01/04 08:29:49;;;;;;;8.95;3.88;;;;;;;6.78;100.00;100185.00;5022954;28;20139;-58
2024/01/04 08:32:16;;;;;;;7.55;3.30;;;;;;;6.79;100.00;100188.50;5013563;28;20483;-58
2024/01/04 08:34:42;;;;;;;8.77;4.30;;;;;;;6.79;100.00;100186.69;5015865;28;20121;-59
2024/01/04 08:37:07;;;;;;;7.32;3.08;;;;;;;6.80;100.00;100191.03;5014502;28;20113;-58
2024/01/04 08:39:32;;;;;;;5.22;3.40;;;;;;;6.81;100.00;100194.50;5015860;28;20021;-58
2024/01/04 08:41:58;;;;;;;6.30;3.30;;;;;;;6.80;100.00;100191.03;5015474;28;20041;-57
2024/01/04 08:44:23;;;;;;;6.82;3.35;;;;;;;6.80;100.00;100198.94;5017788;28;20482;-58
2024/01/04 08:46:50;;;;;;;6.95;3.53;;;;;;;6.79;100.00;100196.41;5016914;28;20029;-58
2024/01/04 08:49:15;;;;;;;6.32;3.50;;;;;;;6.79;100.00;100199.03;5013994;28;20054;-58
2024/01/04 08:51:41;;;;;;;7.68;3.17;;;;;;;6.78;100.00;100203.50;5019551;28;20029;-58
2024/01/04 08:54:06;;;;;;;9.77;3.55;;;;;;;6.77;100.00;100201.78;5018574;28;20394;-57
2024/01/04 08:56:31;;;;;;;3.33;2.95;;;;;;;6.78;100.00;100211.41;5014972;28;20109;-59
2024/01/04 08:58:57;;;;;;;5.85;3.33;;;;;;;6.78;100.00;100216.69;5015491;28;20391;-59
2024/01/04 09:01:22;;;;;;;5.10;3.00;;;;;;;6.76;100.00;100213.31;5018704;28;20041;-58
2024/01/04 09:03:48;;;;;;;7.22;3.08;;;;;;;6.76;100.00;100218.59;5016882;28;20024;-59
2024/01/04 09:06:14;;;;;;;7.68;2.90;;;;;;;6.77;100.00;100224.72;5018447;28;20025;-57
2024/01/04 09:08:39;;;;;;;4.28;2.80;;;;;;;6.76;100.00;100223.00;5008548;28;20018;-57
2024/01/04 09:11:06;;;;;;;9.13;2.97;;;;;;;6.75;100.00;100219.53;5016912;28;20663;-58
2024/01/04 09:13:31;;;;;;;3.42;2.20;;;;;;;6.75;100.00;100227.47;5020181;28;20109;-57
2024/01/04 09:15:58;;;;;;;5.68;2.13;;;;;;;6.76;100.00;100236.22;5021406;28;20526;-58
2024/01/04 09:18:23;;;;;;;4.22;2.30;;;;;;;6.77;100.00;100240.56;5017878;28;20021;-58
2024/01/04 09:20:48;;;;;;;2.80;2.20;;;;;;;6.76;100.00;100231.78;5020168;28;20564;-59
2024/01/04 09:23:13;;;;;;;5.68;2.22;;;;;;;6.78;100.00;100236.97;5018606;28;20029;-59
2024/01/04 09:25:39;;;;;;;3.90;2.38;;;;;;;6.79;100.00;100252.66;5024454;28;20025;-57
2024/01/04 09:28:04;;;;;;;4.32;2.00;;;;;;;6.80;100.00;100241.16;5019421;28;20049;-59
2024/01/04 09:30:30;;;;;;;2.15;1.92;;;;;;;6.82;100.00;100239.25;5023022;28;20033;-59
2024/01/04 09:32:55;;;;;;;3.95;2.00;;;;;;;6.86;100.00;100258.34;5021315;28;20451;-60
2024/01/04 09:35:22;;;;;;;3.25;2.03;;;;;;;6.88;100.00;100256.47;5018031;28;20026;-60
2024/01/04 09:37:50;;;;;;;2.40;1.92;;;;;;;6.92;100.00;100251.81;5023573;28;20038;-60
2024/01/04 09:40:15;;;;;;;6.03;2.20;;;;;;;6.96;100.00;100255.91;5023548;28;20025;-60
2024/01/04 09:42:40;;;;;;;5.32;2.25;;;;;;;6.97;100.00;100266.38;5021691;28;20087;-60
2024/01/04 09:45:13;;;;;;;3.13;2.15;;;;;;;6.98;100.00;100269.88;5010931;28;20174;-60
2024/01/04 09:47:40;;;;;;;3.05;2.30;;;;;;;6.97;100.00;100270.81;5019045;28;20087;-59
2024/01/04 09:50:10;;;;;;;3.45;2.00;;;;;;;6.98;100.00;100273.34;5014088;28;20054;-60
2024/01/04 09:52:36;;;;;;;;;;;;;;;7.05;100.00;100279.03;5017610;28;20198;-59
2024/01/04 09:55:03;;;;;;;3.10;1.98;;;;;;;7.00;100.00;100281.16;5020531;28;19920;-59
2024/01/04 09:57:28;;;;;;;4.10;2.10;;;;;;;6.99;100.00;100288.22;5023973;28;20037;-59
2024/01/04 09:59:54;;;;;;;3.55;2.70;;;;;;;6.99;100.00;100290.88;5014671;28;20037;-59
2024/01/04 10:02:20;;;;;;;3.70;2.33;;;;;;;7.00;100.00;100297.00;5015073;28;20033;-59
2024/01/04 10:04:48;;;;;;;3.35;2.28;;;;;;;6.99;100.00;100295.31;5013101;28;20379;-60
2024/01/04 10:07:22;;;;;;;4.63;2.90;;;;;;;7.00;100.00;100297.00;5010489;28;20399;-60
2024/01/04 10:10:05;;;;;;;4.05;2.70;;;;;;;7.01;100.00;100310.09;5011410;28;20025;-59
2024/01/04 10:12:34;;;;;;;5.25;2.60;;;;;;;7.00;100.00;100305.75;5011114;28;20075;-59
2024/01/04 10:15:00;;;;;;;3.65;2.83;;;;;;;7.00;100.00;100308.41;5011455;28;20468;-59
2024/01/04 10:17:25;;;;;;;5.45;2.60;;;;;;;7.00;100.00;100310.22;5013118;28;20061;-59
2024/01/04 10:19:50;;;;;;;3.15;2.85;;;;;;;7.00;100.00;100313.69;5010994;28;20037;-59
2024/01/04 10:22:21;;;;;;;3.92;2.67;;;;;;;7.02;100.00;100318.88;5009825;28;20022;-59
2024/01/04 10:24:47;;;;;;;2.88;2.55;;;;;;;7.01;100.00;100311.88;5011827;28;20431;-59
2024/01/04 10:27:15;;;;;;;3.05;2.30;;;;;;;6.96;100.00;100306.94;5011029;28;20053;-59
2024/01/04 10:29:43;;;;;;;3.05;2.60;;;;;;;7.00;100.00;100320.78;5014218;28;20022;-58
2024/01/04 10:32:13;;;;;;;2.97;2.33;;;;;;;7.00;100.00;100320.78;5013259;28;20379;-59
2024/01/04 10:34:39;;;;;;;2.83;1.85;;;;;;;6.99;100.00;100324.34;5015521;28;20026;-59
2024/01/04 10:37:11;;;;;;;2.28;1.90;;;;;;;7.01;100.00;100325.09;5013830;28;20030;-59
2024/01/04 10:39:37;;;;;;;2.15;1.50;;;;;;;7.00;100.00;100323.41;5012204;28;20032;-60
2024/01/04 10:42:03;;;;;;;1.60;1.50;;;;;;;7.01;100.00;100319.81;5015842;28;20032;-59
2024/01/04 10:44:29;;;;;;;2.90;1.55;;;;;;;7.01;100.00;100325.09;5016952;28;20026;-59
2024/01/04 10:47:02;;;;;;;3.08;1.70;;;;;;;7.01;100.00;100322.44;5014892;28;20021;-59
2024/01/04 10:49:27;;;;;;;2.22;1.40;;;;;;;7.01;100.00;100328.59;5021142;28;20049;-59
2024/01/04 10:51:57;;;;;;;2.15;1.50;;;;;;;7.02;100.00;100318.88;5018914;28;20029;-59
2024/01/04 10:54:37;;;;;;;3.08;1.65;;;;;;;7.07;100.00;100326.47;5015996;28;20037;-59
2024/01/04 10:57:03;;;;;;;1.65;1.13;;;;;;;7.07;100.00;100329.09;5018710;28;20041;-59
2024/01/04 10:59:30;;;;;;;1.80;1.38;;;;;;;7.08;100.00;100330.78;5019206;28;20471;-58
2024/01/04 11:01:59;;;;;;;1.60;1.23;;;;;;;7.11;100.00;100334.06;5019968;28;20159;-58
2024/01/04 11:04:26;;;;;;;1.67;1.42;;;;;;;7.13;100.00;100326.03;5014430;28;20034;-59
2024/01/04 11:06:52;;;;;;;3.17;1.38;;;;;;;7.17;100.00;100325.69;5017741;28;20538;-58
2024/01/04 11:09:19;;;;;;;2.63;1.50;;;;;;;7.21;100.00;100327.19;5021951;28;20497;-59
2024/01/04 11:11:45;;;;;;;2.30;1.63;;;;;;;7.24;100.00;100334.03;5017640;28;20435;-58
2024/01/04 11:14:10;;;;;;;3.38;1.70;;;;;;;7.26;100.00;100339.22;5016501;28;20037;-58
2024/01/04 11:16:53;;;;;;;4.97;1.88;;;;;;;7.29;100.00;100341.63;5018894;28;20096;-59
2024/01/04 11:19:49;;;;;;;2.60;1.60;;;;;;;7.31;100.00;100334.44;5014543;28;20042;-59